Terminal Aerodrome Forecast
Issued by NWS

Home | Current Version | Previous Version | Text Only | Print | Product List | Glossary On
Versions: 1 2 3 4 5 6 7 8 9 10 11 12 13 14 15 16 17 18 19 20 21 22 23 24 25 26 27 28 29 30 31 32 33 34 35 36 37 38 39 40 41 42 43 44 45 46 47 48 49 50
000
FTUS41 KCTP 242353
TAFAOO
TAF
KAOO 242353Z 2500/2524 32005KT P6SM VCSH SCT050 BKN120
     FM250200 26007KT P6SM BKN040
     FM250900 VRB03KT 4SM BR SCT035
     FM251200 23007KT P6SM SCT040
     FM251800 26010G20KT P6SM VCSH BKN050
     FM252200 28010G20KT P6SM SCT050=

USA.gov is the U.S. government's official web portal to all federal, state and local government web resources and services.